createdAt,value
2022-12-16T00:01:29.822Z,-0.83
2022-12-16T00:03:59.939Z,-0.99
2022-12-16T00:06:32.416Z,-0.95
2022-12-16T00:09:02.896Z,-1.08
2022-12-16T00:11:32.116Z,-1.18
2022-12-16T00:13:58.980Z,-1.19
2022-12-16T00:16:25.952Z,-1.10
2022-12-16T00:18:55.359Z,-1.08
2022-12-16T00:21:23.197Z,-0.93
2022-12-16T00:23:50.018Z,-0.94
2022-12-16T00:26:21.421Z,-1.03
2022-12-16T00:28:48.830Z,-0.93
2022-12-16T00:31:16.113Z,-1.09
2022-12-16T00:33:43.215Z,-0.88
2022-12-16T00:36:14.737Z,-0.88
2022-12-16T00:38:44.163Z,-0.94
2022-12-16T00:41:10.984Z,-1.15
2022-12-16T00:43:37.894Z,-1.13
2022-12-16T00:46:05.140Z,-1.13
2022-12-16T00:48:32.043Z,-1.15
2022-12-16T00:50:59.030Z,-1.03
2022-12-16T00:53:29.348Z,-1.07
2022-12-16T00:56:05.814Z,-1.17
2022-12-16T00:58:32.963Z,-1.10
2022-12-16T01:01:02.442Z,-1.27
2022-12-16T01:03:32.124Z,-1.21
2022-12-16T01:05:59.234Z,-1.21
2022-12-16T01:08:28.402Z,-1.24
2022-12-16T01:10:57.230Z,-1.37
2022-12-16T01:13:26.129Z,-1.43
2022-12-16T01:15:53.485Z,-1.35
2022-12-16T01:18:21.370Z,-1.35
2022-12-16T01:20:48.296Z,-1.38
2022-12-16T01:23:15.302Z,-1.34
2022-12-16T01:25:44.745Z,-1.21
2022-12-16T01:28:13.861Z,-1.46
2022-12-16T01:30:40.776Z,-1.67
2022-12-16T01:33:10.841Z,-1.68
2022-12-16T01:35:55.448Z,-1.55
2022-12-16T01:38:23.133Z,-1.72
2022-12-16T01:40:52.228Z,-1.72
2022-12-16T01:43:24.558Z,-1.58
2022-12-16T01:45:55.933Z,-1.54
2022-12-16T01:48:45.591Z,-1.74
2022-12-16T01:51:28.178Z,-1.56
2022-12-16T01:54:39.684Z,-1.59
2022-12-16T01:57:13.832Z,-1.36
2022-12-16T01:59:45.186Z,-1.23
2022-12-16T02:02:14.211Z,-1.15
2022-12-16T02:05:04.475Z,-0.98
2022-12-16T02:07:33.858Z,-0.85
2022-12-16T02:10:03.283Z,-0.92
2022-12-16T02:12:58.127Z,-1.06
2022-12-16T02:15:45.291Z,-0.94
2022-12-16T02:18:36.906Z,-1.03
2022-12-16T02:21:27.893Z,-1.14
2022-12-16T02:24:27.206Z,-1.39
2022-12-16T02:27:12.072Z,-1.34
2022-12-16T02:30:25.013Z,-1.33
2022-12-16T02:33:00.385Z,-1.19
2022-12-16T02:35:48.489Z,-1.09
2022-12-16T02:38:27.540Z,-1.18
2022-12-16T02:41:11.481Z,-1.00
2022-12-16T02:43:57.833Z,-0.94
2022-12-16T02:46:30.114Z,-1.31
2022-12-16T02:49:07.724Z,-1.24
2022-12-16T02:51:38.930Z,-1.32
2022-12-16T02:54:08.228Z,-1.08
2022-12-16T02:56:44.154Z,-1.20
2022-12-16T02:59:47.883Z,-1.00
2022-12-16T03:02:43.147Z,-1.29
2022-12-16T03:05:19.605Z,-1.08
2022-12-16T03:07:49.034Z,-0.91
2022-12-16T03:10:20.450Z,-0.80
2022-12-16T03:12:47.517Z,-0.87
2022-12-16T03:15:23.565Z,-1.00
2022-12-16T03:17:52.888Z,-1.02
2022-12-16T03:20:32.904Z,-1.00
2022-12-16T03:23:04.881Z,-1.11
2022-12-16T03:25:35.612Z,-1.14
2022-12-16T03:28:40.301Z,-0.91
2022-12-16T03:31:42.686Z,-0.89
2022-12-16T03:34:31.716Z,-0.86
2022-12-16T03:37:09.722Z,-0.94
2022-12-16T03:39:51.168Z,-0.79
2022-12-16T03:42:18.675Z,-0.98
2022-12-16T03:44:49.505Z,-0.72
2022-12-16T03:47:23.080Z,-0.87
2022-12-16T03:49:51.097Z,-0.89
2022-12-16T03:52:18.176Z,-0.90
2022-12-16T03:54:44.998Z,-0.63
2022-12-16T03:57:15.424Z,-0.73
2022-12-16T03:59:45.210Z,-0.59
2022-12-16T04:02:12.228Z,-0.76
2022-12-16T04:04:39.310Z,-0.69
2022-12-16T04:07:20.480Z,-0.57
2022-12-16T04:09:51.474Z,-0.60
2022-12-16T04:12:38.598Z,-0.43
2022-12-16T04:15:25.706Z,-0.45
2022-12-16T04:18:10.963Z,-0.37
2022-12-16T04:21:11.448Z,-0.32
2022-12-16T04:24:06.349Z,-0.38
2022-12-16T04:26:54.331Z,-0.22
2022-12-16T04:29:21.273Z,-0.48
2022-12-16T04:31:48.934Z,-0.25
2022-12-16T04:34:29.257Z,-0.01
2022-12-16T04:37:20.286Z,0.08
2022-12-16T04:40:06.518Z,-0.01
2022-12-16T04:42:52.159Z,0.12
2022-12-16T04:45:38.263Z,0.16
2022-12-16T04:48:24.564Z,0.03
2022-12-16T04:51:09.779Z,-0.07
2022-12-16T04:53:55.083Z,-0.21
2022-12-16T04:56:40.303Z,-0.10
2022-12-16T04:59:28.083Z,-0.03
2022-12-16T05:02:13.546Z,-0.09
2022-12-16T05:04:59.263Z,-0.19
2022-12-16T05:07:44.555Z,-0.11
2022-12-16T05:10:29.626Z,-0.47
2022-12-16T05:13:15.304Z,-0.44
2022-12-16T05:16:00.582Z,-0.62
2022-12-16T05:18:48.466Z,-0.62
2022-12-16T05:21:33.566Z,-0.52
2022-12-16T05:24:18.792Z,-0.48
2022-12-16T05:27:06.767Z,-0.23
2022-12-16T05:29:54.728Z,-0.19
2022-12-16T05:32:45.078Z,-0.58
2022-12-16T05:35:30.375Z,-0.83
2022-12-16T05:38:17.871Z,-0.84
2022-12-16T05:41:03.570Z,-0.99
2022-12-16T05:43:48.718Z,-1.10
2022-12-16T05:46:36.746Z,-1.17
2022-12-16T05:49:22.364Z,-1.16
2022-12-16T05:52:07.949Z,-1.06
2022-12-16T05:54:53.269Z,-0.79
2022-12-16T05:57:41.365Z,-0.62
2022-12-16T06:00:30.819Z,-0.59
2022-12-16T06:03:16.446Z,-0.61
2022-12-16T06:06:06.930Z,-0.52
2022-12-16T06:08:52.217Z,-0.37
2022-12-16T06:11:37.946Z,-0.40
2022-12-16T06:14:26.027Z,-0.76
2022-12-16T06:17:14.011Z,-0.62
2022-12-16T06:19:59.183Z,-0.50
2022-12-16T06:22:44.416Z,-0.49
2022-12-16T06:25:29.814Z,-0.63
2022-12-16T06:28:15.514Z,-0.50
2022-12-16T06:31:00.756Z,-0.76
2022-12-16T06:33:47.115Z,-0.61
2022-12-16T06:36:34.793Z,-0.64
2022-12-16T06:39:20.525Z,-0.72
2022-12-16T06:42:08.324Z,-0.73
2022-12-16T06:44:54.106Z,-0.79
2022-12-16T06:47:39.685Z,-0.76
2022-12-16T06:50:29.950Z,-0.82
2022-12-16T06:53:15.215Z,-0.99
2022-12-16T06:56:00.841Z,-0.85
2022-12-16T06:58:46.227Z,-0.84
2022-12-16T07:01:31.907Z,-0.79
2022-12-16T07:04:17.375Z,-0.77
2022-12-16T07:07:05.262Z,-0.87
2022-12-16T07:09:50.798Z,-0.83
2022-12-16T07:12:36.088Z,-0.86
2022-12-16T07:15:21.999Z,-1.02
2022-12-16T07:18:10.103Z,-0.85
2022-12-16T07:20:55.187Z,-0.78
2022-12-16T07:23:40.499Z,-0.81
2022-12-16T07:26:25.931Z,-0.70
2022-12-16T07:29:11.585Z,-0.63
2022-12-16T07:31:57.497Z,-0.89
2022-12-16T07:34:49.965Z,-0.78
2022-12-16T07:37:36.088Z,-0.88
2022-12-16T07:40:22.510Z,-0.72
2022-12-16T07:43:08.043Z,-0.64
2022-12-16T07:45:58.225Z,-0.60
2022-12-16T07:48:46.615Z,-0.50
2022-12-16T07:51:32.170Z,-0.46
2022-12-16T07:54:17.446Z,-0.48
2022-12-16T07:57:02.880Z,-0.30
2022-12-16T07:59:48.277Z,-0.36
2022-12-16T08:02:36.147Z,-0.23
2022-12-16T08:05:22.084Z,-0.32
2022-12-16T08:08:07.923Z,-0.16
2022-12-16T08:10:53.291Z,-0.05
2022-12-16T08:13:41.257Z,0.10
2022-12-16T08:16:26.650Z,0.15
2022-12-16T08:19:12.402Z,0.32
2022-12-16T08:21:58.315Z,0.36
2022-12-16T08:24:56.119Z,0.46
2022-12-16T08:27:43.699Z,0.59
2022-12-16T08:30:30.397Z,0.65
2022-12-16T08:36:21.213Z,0.62
2022-12-16T08:39:07.129Z,0.77
2022-12-16T08:41:52.866Z,0.71
2022-12-16T08:44:42.925Z,0.77
2022-12-16T08:47:29.119Z,0.81
2022-12-16T08:50:19.043Z,0.89
2022-12-16T08:53:04.649Z,0.87
2022-12-16T08:55:50.442Z,0.92
2022-12-16T08:58:40.439Z,1.12
2022-12-16T09:01:31.961Z,1.03
2022-12-16T09:04:19.613Z,1.05
2022-12-16T09:07:06.313Z,0.94
2022-12-16T09:09:56.665Z,0.68
2022-12-16T09:12:44.593Z,0.69
2022-12-16T09:15:35.699Z,0.87
2022-12-16T09:18:23.683Z,1.04
2022-12-16T09:21:11.934Z,1.12
2022-12-16T09:23:57.814Z,1.04
2022-12-16T09:26:48.462Z,0.87
2022-12-16T09:29:43.360Z,1.03
2022-12-16T09:32:31.742Z,1.04
2022-12-16T09:35:19.721Z,0.90
2022-12-16T09:38:07.955Z,1.04
2022-12-16T09:41:01.779Z,0.98
2022-12-16T09:44:08.728Z,1.14
2022-12-16T09:47:14.642Z,0.90
2022-12-16T09:50:34.099Z,0.90
2022-12-16T09:53:25.545Z,0.67
2022-12-16T09:56:14.016Z,0.60
2022-12-16T09:59:12.097Z,0.83
2022-12-16T10:02:00.180Z,0.96
2022-12-16T10:04:48.582Z,1.03
2022-12-16T10:07:40.005Z,1.14
2022-12-16T10:10:51.608Z,1.21
2022-12-16T10:13:45.784Z,1.00
2022-12-16T10:16:58.964Z,1.08
2022-12-16T10:20:28.321Z,1.07
2022-12-16T10:23:25.087Z,1.45
2022-12-16T10:26:38.015Z,1.52
2022-12-16T10:29:38.409Z,1.63
2022-12-16T10:32:50.131Z,1.59
2022-12-16T10:35:56.200Z,1.57
2022-12-16T10:38:55.651Z,1.20
2022-12-16T10:41:46.108Z,0.68
2022-12-16T10:45:13.526Z,0.71
2022-12-16T10:48:13.473Z,0.87
2022-12-16T10:51:01.395Z,1.06
2022-12-16T10:53:46.996Z,1.09
2022-12-16T10:57:08.831Z,0.95
2022-12-16T10:59:58.860Z,1.08
2022-12-16T11:02:46.981Z,1.06
2022-12-16T11:05:49.663Z,1.07
2022-12-16T11:08:55.547Z,1.16
2022-12-16T11:11:47.207Z,0.93
2022-12-16T11:15:12.594Z,0.53
2022-12-16T11:17:56.016Z,0.57
2022-12-16T11:20:44.961Z,0.79
2022-12-16T11:23:43.509Z,0.93
2022-12-16T11:26:38.395Z,1.14
2022-12-16T11:29:36.847Z,1.17
2022-12-16T11:32:44.152Z,1.06
2022-12-16T11:35:38.352Z,0.90
2022-12-16T11:38:34.959Z,1.11
2022-12-16T11:41:24.298Z,0.98
2022-12-16T11:44:14.567Z,1.08
2022-12-16T11:47:03.626Z,0.75
2022-12-16T11:49:53.019Z,0.98
2022-12-16T11:52:41.269Z,1.02
2022-12-16T11:59:08.660Z,1.40
2022-12-16T12:02:13.961Z,0.90
2022-12-16T12:05:00.147Z,0.79
2022-12-16T12:08:00.661Z,1.25
2022-12-16T12:11:23.630Z,1.15
2022-12-16T12:14:25.118Z,1.31
2022-12-16T12:18:10.298Z,1.44
2022-12-16T12:21:17.636Z,1.69
2022-12-16T12:24:05.895Z,1.71
2022-12-16T12:26:56.551Z,1.67
2022-12-16T12:30:03.069Z,1.89
2022-12-16T12:33:22.656Z,2.11
2022-12-16T12:36:38.280Z,2.09
2022-12-16T12:39:52.420Z,2.43
2022-12-16T12:43:21.687Z,2.67
2022-12-16T12:47:06.920Z,2.70
2022-12-16T12:50:15.201Z,2.71
2022-12-16T12:53:46.218Z,2.71
2022-12-16T12:56:44.826Z,2.84
2022-12-16T13:00:08.014Z,3.11
2022-12-16T13:03:11.605Z,3.16
2022-12-16T13:05:58.216Z,3.01
2022-12-16T13:09:05.206Z,2.80
2022-12-16T13:11:53.229Z,2.98
2022-12-16T13:14:51.608Z,2.96
2022-12-16T13:17:42.440Z,3.10
2022-12-16T13:20:54.799Z,2.84
2022-12-16T13:23:53.755Z,2.79
2022-12-16T13:26:46.744Z,3.04
2022-12-16T13:29:48.355Z,3.22
2022-12-16T13:32:36.617Z,3.41
2022-12-16T13:35:36.584Z,3.29
2022-12-16T13:38:36.201Z,3.28
2022-12-16T13:41:25.856Z,3.27
2022-12-16T13:44:18.729Z,3.31
2022-12-16T13:47:08.038Z,3.08
2022-12-16T13:50:02.541Z,3.23
2022-12-16T13:52:56.638Z,3.15
2022-12-16T13:56:03.687Z,2.99
2022-12-16T13:59:01.185Z,3.04
2022-12-16T14:02:08.593Z,3.02
2022-12-16T14:05:03.547Z,3.08
2022-12-16T14:07:56.907Z,3.08
2022-12-16T14:11:01.051Z,3.04
2022-12-16T14:14:21.283Z,3.07
2022-12-16T14:17:12.760Z,3.19
2022-12-16T14:20:38.650Z,3.06
2022-12-16T14:23:57.005Z,2.98
2022-12-16T14:26:48.063Z,2.98
2022-12-16T14:29:48.307Z,2.97
2022-12-16T14:32:52.484Z,3.09
2022-12-16T14:35:47.619Z,3.14
2022-12-16T14:38:53.977Z,3.06
2022-12-16T14:41:44.434Z,3.09
2022-12-16T14:44:44.731Z,2.97
2022-12-16T14:47:43.255Z,2.82
2022-12-16T14:50:46.640Z,2.81
2022-12-16T14:53:49.255Z,2.94
2022-12-16T14:56:42.296Z,2.80
2022-12-16T14:59:38.214Z,2.58
2022-12-16T15:02:41.970Z,2.75
2022-12-16T15:05:27.712Z,2.65
2022-12-16T15:08:13.789Z,2.78
2022-12-16T15:11:02.382Z,2.69
2022-12-16T15:14:04.239Z,2.69
2022-12-16T15:16:53.594Z,2.69
2022-12-16T15:19:41.548Z,2.73
2022-12-16T15:22:36.283Z,2.61
2022-12-16T15:25:23.192Z,2.52
2022-12-16T15:28:16.158Z,2.53
2022-12-16T15:31:06.639Z,2.62
2022-12-16T15:34:00.032Z,2.60
2022-12-16T15:36:52.949Z,2.62
2022-12-16T15:39:55.042Z,2.44
2022-12-16T15:42:45.709Z,2.44
2022-12-16T15:45:39.002Z,2.52
2022-12-16T15:48:51.431Z,2.49
2022-12-16T15:51:58.597Z,2.69
2022-12-16T15:54:46.771Z,2.59
2022-12-16T15:57:53.650Z,2.67
2022-12-16T16:00:45.179Z,2.68
2022-12-16T16:03:48.191Z,2.76
2022-12-16T16:06:42.946Z,2.61
2022-12-16T16:09:51.588Z,2.76
2022-12-16T16:13:04.245Z,2.76
2022-12-16T16:15:55.815Z,2.85
2022-12-16T16:18:41.606Z,2.93
2022-12-16T16:21:31.022Z,2.84
2022-12-16T16:24:18.082Z,2.96
2022-12-16T16:27:05.678Z,2.95
2022-12-16T16:29:51.531Z,3.01
2022-12-16T16:32:37.447Z,2.97
2022-12-16T16:35:25.464Z,2.78
2022-12-16T16:38:15.348Z,2.78
2022-12-16T16:41:10.026Z,2.67
2022-12-16T16:44:02.127Z,2.85
2022-12-16T16:47:01.041Z,3.02
2022-12-16T16:50:08.383Z,2.73
2022-12-16T16:52:56.397Z,2.81
2022-12-16T16:55:43.760Z,2.90
2022-12-16T16:58:48.945Z,2.91
2022-12-16T17:01:40.486Z,2.96
2022-12-16T17:04:34.942Z,2.85
2022-12-16T17:07:23.783Z,2.87
2022-12-16T17:10:12.137Z,2.82
2022-12-16T17:13:04.451Z,2.61
2022-12-16T17:15:55.978Z,2.69
2022-12-16T17:18:46.727Z,2.83
2022-12-16T17:21:34.982Z,2.97
2022-12-16T17:24:20.960Z,2.87
2022-12-16T17:27:06.518Z,2.86
2022-12-16T17:29:52.035Z,2.93
2022-12-16T17:32:37.454Z,2.96
2022-12-16T17:35:23.399Z,2.85
2022-12-16T17:38:12.448Z,2.83
2022-12-16T17:41:02.775Z,2.89
2022-12-16T17:43:47.813Z,2.94
2022-12-16T17:46:35.693Z,2.90
2022-12-16T17:49:21.830Z,2.83
2022-12-16T17:52:09.688Z,2.99
2022-12-16T17:54:58.918Z,2.99
2022-12-16T17:57:45.011Z,3.02
2022-12-16T18:00:34.845Z,3.12
2022-12-16T18:03:25.289Z,3.05
2022-12-16T18:06:17.278Z,3.16
2022-12-16T18:09:03.472Z,3.16
2022-12-16T18:11:49.694Z,3.10
2022-12-16T18:14:36.175Z,3.02
2022-12-16T18:17:21.905Z,3.01
2022-12-16T18:20:07.776Z,2.93
2022-12-16T18:22:54.061Z,2.91
2022-12-16T18:25:42.225Z,3.08
2022-12-16T18:28:29.262Z,3.09
2022-12-16T18:31:17.041Z,3.07
2022-12-16T18:34:04.903Z,3.05
2022-12-16T18:36:55.092Z,3.07
2022-12-16T18:39:45.391Z,3.03
2022-12-16T18:42:34.177Z,2.82
2022-12-16T18:45:22.468Z,2.61
2022-12-16T18:48:09.069Z,2.61
2022-12-16T18:50:57.011Z,2.64
2022-12-16T18:53:43.293Z,2.72
2022-12-16T18:56:31.929Z,2.70
2022-12-16T18:59:18.126Z,2.63
2022-12-16T19:02:24.044Z,2.53
2022-12-16T19:05:09.860Z,2.53
2022-12-16T19:07:54.995Z,2.45
2022-12-16T19:10:42.793Z,2.19
2022-12-16T19:13:32.913Z,2.23
2022-12-16T19:16:21.588Z,2.15
2022-12-16T19:19:11.743Z,2.37
2022-12-16T19:21:59.219Z,2.45
2022-12-16T19:24:46.954Z,2.41
2022-12-16T19:27:32.374Z,2.18
2022-12-16T19:30:17.916Z,2.37
2022-12-16T19:33:08.999Z,2.19
2022-12-16T19:35:54.751Z,2.35
2022-12-16T19:38:42.180Z,2.35
2022-12-16T19:41:51.268Z,2.26
2022-12-16T19:44:39.543Z,2.05
2022-12-16T19:47:27.816Z,1.92
2022-12-16T19:50:13.400Z,2.07
2022-12-16T19:52:59.091Z,2.23
2022-12-16T19:55:44.278Z,2.29
2022-12-16T19:58:30.011Z,2.30
2022-12-16T20:01:15.416Z,2.22
2022-12-16T20:04:00.695Z,2.26
2022-12-16T20:06:46.026Z,2.33
2022-12-16T20:09:33.644Z,2.41
2022-12-16T20:12:19.077Z,2.68
2022-12-16T20:15:04.765Z,2.63
2022-12-16T20:17:51.682Z,2.76
2022-12-16T20:20:37.089Z,2.62
2022-12-16T20:23:22.696Z,2.63
2022-12-16T20:26:21.751Z,2.73
2022-12-16T20:29:09.779Z,2.76
2022-12-16T20:31:55.962Z,2.74
2022-12-16T20:34:41.977Z,2.74
2022-12-16T20:37:27.970Z,2.66
2022-12-16T20:40:16.028Z,2.58
2022-12-16T20:43:01.942Z,2.73
2022-12-16T20:45:47.749Z,2.79
2022-12-16T20:48:35.260Z,2.83
2022-12-16T20:51:26.898Z,2.81
2022-12-16T20:54:12.975Z,2.71
2022-12-16T20:56:59.154Z,2.73
2022-12-16T20:59:45.272Z,2.82
2022-12-16T21:02:34.473Z,2.86
2022-12-16T21:05:20.831Z,2.80
2022-12-16T21:08:06.639Z,2.80
2022-12-16T21:10:56.288Z,2.83
2022-12-16T21:13:45.856Z,2.59
2022-12-16T21:16:33.792Z,2.72
2022-12-16T21:19:18.955Z,2.59
2022-12-16T21:22:07.225Z,2.48
2022-12-16T21:24:53.159Z,2.22
2022-12-16T21:27:39.173Z,2.19
2022-12-16T21:30:27.855Z,2.26
2022-12-16T21:33:13.209Z,2.19
2022-12-16T21:36:01.103Z,1.96
2022-12-16T21:38:46.433Z,1.85
2022-12-16T21:41:31.902Z,1.89
2022-12-16T21:44:17.444Z,1.85
2022-12-16T21:47:02.806Z,1.82
2022-12-16T21:49:48.597Z,1.69
2022-12-16T21:52:34.147Z,1.64
2022-12-16T21:55:19.566Z,1.60
2022-12-16T21:58:04.863Z,1.60
2022-12-16T22:00:56.168Z,1.56
2022-12-16T22:03:53.222Z,1.55
2022-12-16T22:06:42.171Z,1.34
2022-12-16T22:09:31.499Z,1.36
2022-12-16T22:12:19.828Z,1.44
2022-12-16T22:15:05.640Z,1.56
2022-12-16T22:17:58.381Z,1.55
2022-12-16T22:20:45.026Z,1.63
2022-12-16T22:23:30.817Z,1.67
2022-12-16T22:26:18.526Z,1.65
2022-12-16T22:29:04.527Z,1.52
2022-12-16T22:31:50.325Z,1.45
2022-12-16T22:34:36.306Z,1.57
2022-12-16T22:37:21.727Z,1.45
2022-12-16T22:40:07.190Z,1.43
2022-12-16T22:42:55.087Z,1.26
2022-12-16T22:45:42.221Z,1.19
2022-12-16T22:48:32.322Z,1.25
2022-12-16T22:51:20.057Z,1.17
2022-12-16T22:54:09.791Z,1.08
2022-12-16T23:00:01.505Z,1.05
2022-12-16T23:02:51.869Z,1.05
2022-12-16T23:05:37.605Z,0.76
2022-12-16T23:08:23.659Z,0.60
2022-12-16T23:11:17.614Z,0.68
2022-12-16T23:14:03.693Z,0.79
2022-12-16T23:16:51.450Z,0.46
2022-12-16T23:19:41.155Z,0.53
2022-12-16T23:22:28.961Z,0.60
2022-12-16T23:25:14.652Z,0.64
2022-12-16T23:27:59.783Z,0.66
2022-12-16T23:30:45.199Z,0.89
2022-12-16T23:32:30.681Z,1.22
2022-12-16T23:33:30.453Z,0.92
2022-12-16T23:36:16.295Z,0.89
2022-12-16T23:39:01.484Z,0.87
2022-12-16T23:41:48.949Z,0.81
2022-12-16T23:44:34.762Z,0.89
2022-12-16T23:47:20.315Z,0.96
2022-12-16T23:50:07.059Z,0.85
2022-12-16T23:52:53.676Z,0.79
2022-12-16T23:55:42.190Z,0.64
2022-12-16T23:58:32.310Z,0.80
